sensor_id;sensor_type;location;lat;lon;timestamp;P1;durP1;ratioP1;P2;durP2;ratioP2
23302;SDS011;11820;48.738;9.092;2022-09-09T00:00:21;2.13;;;1.10;;
23302;SDS011;11820;48.738;9.092;2022-09-09T00:02:50;3.97;;;1.50;;
23302;SDS011;11820;48.738;9.092;2022-09-09T00:05:34;2.97;;;0.93;;
23302;SDS011;11820;48.738;9.092;2022-09-09T00:08:06;4.00;;;1.13;;
23302;SDS011;11820;48.738;9.092;2022-09-09T00:10:44;4.93;;;1.40;;
23302;SDS011;11820;48.738;9.092;2022-09-09T00:15:52;4.30;;;1.60;;
23302;SDS011;11820;48.738;9.092;2022-09-09T00:18:28;4.80;;;1.87;;
23302;SDS011;11820;48.738;9.092;2022-09-09T00:21:05;4.37;;;1.60;;
23302;SDS011;11820;48.738;9.092;2022-09-09T00:23:43;3.70;;;1.63;;
23302;SDS011;11820;48.738;9.092;2022-09-09T00:29:09;5.93;;;2.10;;
23302;SDS011;11820;48.738;9.092;2022-09-09T00:31:47;3.63;;;1.50;;
23302;SDS011;11820;48.738;9.092;2022-09-09T00:36:46;3.77;;;1.10;;
23302;SDS011;11820;48.738;9.092;2022-09-09T00:39:36;4.90;;;1.33;;
23302;SDS011;11820;48.738;9.092;2022-09-09T00:42:13;5.17;;;1.10;;
23302;SDS011;11820;48.738;9.092;2022-09-09T00:47:51;3.30;;;1.00;;
23302;SDS011;11820;48.738;9.092;2022-09-09T00:50:25;4.60;;;1.10;;
23302;SDS011;11820;48.738;9.092;2022-09-09T00:56:05;2.37;;;1.20;;
23302;SDS011;11820;48.738;9.092;2022-09-09T00:58:33;2.53;;;0.90;;
23302;SDS011;11820;48.738;9.092;2022-09-09T01:01:19;1.87;;;1.13;;
23302;SDS011;11820;48.738;9.092;2022-09-09T01:03:49;2.03;;;1.00;;
23302;SDS011;11820;48.738;9.092;2022-09-09T01:17:08;3.53;;;1.20;;
23302;SDS011;11820;48.738;9.092;2022-09-09T01:22:11;3.83;;;1.00;;
23302;SDS011;11820;48.738;9.092;2022-09-09T01:24:53;3.63;;;1.23;;
23302;SDS011;11820;48.738;9.092;2022-09-09T01:27:20;5.10;;;1.20;;
23302;SDS011;11820;48.738;9.092;2022-09-09T01:29:48;3.87;;;1.20;;
23302;SDS011;11820;48.738;9.092;2022-09-09T01:35:07;5.23;;;1.50;;
23302;SDS011;11820;48.738;9.092;2022-09-09T01:37:37;2.70;;;0.97;;
23302;SDS011;11820;48.738;9.092;2022-09-09T01:40:03;2.87;;;0.93;;
23302;SDS011;11820;48.738;9.092;2022-09-09T01:42:29;6.50;;;1.50;;
23302;SDS011;11820;48.738;9.092;2022-09-09T01:44:54;5.67;;;1.20;;
23302;SDS011;11820;48.738;9.092;2022-09-09T01:47:20;4.70;;;1.17;;
23302;SDS011;11820;48.738;9.092;2022-09-09T01:49:45;5.77;;;1.17;;
23302;SDS011;11820;48.738;9.092;2022-09-09T01:52:10;3.93;;;0.90;;
23302;SDS011;11820;48.738;9.092;2022-09-09T01:54:36;2.50;;;1.10;;
23302;SDS011;11820;48.738;9.092;2022-09-09T02:02:32;2.30;;;1.10;;
23302;SDS011;11820;48.738;9.092;2022-09-09T02:05:16;1.57;;;1.00;;
23302;SDS011;11820;48.738;9.092;2022-09-09T02:08:09;5.27;;;1.13;;
23302;SDS011;11820;48.738;9.092;2022-09-09T02:13:12;2.50;;;0.77;;
23302;SDS011;11820;48.738;9.092;2022-09-09T02:18:14;2.67;;;0.90;;
23302;SDS011;11820;48.738;9.092;2022-09-09T02:20:46;1.30;;;0.63;;
23302;SDS011;11820;48.738;9.092;2022-09-09T02:23:12;2.60;;;1.03;;
23302;SDS011;11820;48.738;9.092;2022-09-09T02:25:40;1.47;;;0.90;;
23302;SDS011;11820;48.738;9.092;2022-09-09T02:28:07;4.07;;;0.70;;
23302;SDS011;11820;48.738;9.092;2022-09-09T02:30:35;2.40;;;0.70;;
23302;SDS011;11820;48.738;9.092;2022-09-09T02:33:03;2.83;;;0.97;;
23302;SDS011;11820;48.738;9.092;2022-09-09T02:35:32;3.40;;;1.07;;
23302;SDS011;11820;48.738;9.092;2022-09-09T02:38:02;1.87;;;0.80;;
23302;SDS011;11820;48.738;9.092;2022-09-09T02:40:31;2.13;;;0.80;;
23302;SDS011;11820;48.738;9.092;2022-09-09T02:42:57;2.23;;;0.80;;
23302;SDS011;11820;48.738;9.092;2022-09-09T02:45:23;2.07;;;0.80;;
23302;SDS011;11820;48.738;9.092;2022-09-09T02:50:35;2.20;;;1.20;;
23302;SDS011;11820;48.738;9.092;2022-09-09T02:58:43;2.40;;;0.80;;
23302;SDS011;11820;48.738;9.092;2022-09-09T03:01:09;1.70;;;0.77;;
23302;SDS011;11820;48.738;9.092;2022-09-09T03:03:34;2.40;;;0.90;;
23302;SDS011;11820;48.738;9.092;2022-09-09T03:06:00;1.30;;;0.90;;
23302;SDS011;11820;48.738;9.092;2022-09-09T03:08:26;3.77;;;0.80;;
23302;SDS011;11820;48.738;9.092;2022-09-09T03:10:52;0.90;;;0.60;;
23302;SDS011;11820;48.738;9.092;2022-09-09T03:13:19;1.77;;;0.83;;
23302;SDS011;11820;48.738;9.092;2022-09-09T03:15:44;1.23;;;0.87;;
23302;SDS011;11820;48.738;9.092;2022-09-09T03:18:10;3.40;;;0.90;;
23302;SDS011;11820;48.738;9.092;2022-09-09T03:20:35;2.03;;;0.80;;
23302;SDS011;11820;48.738;9.092;2022-09-09T03:23:00;3.57;;;0.90;;
23302;SDS011;11820;48.738;9.092;2022-09-09T03:25:27;3.53;;;1.07;;
23302;SDS011;11820;48.738;9.092;2022-09-09T03:27:53;3.63;;;0.90;;
23302;SDS011;11820;48.738;9.092;2022-09-09T03:30:23;2.23;;;0.57;;
23302;SDS011;11820;48.738;9.092;2022-09-09T03:32:50;2.90;;;0.90;;
23302;SDS011;11820;48.738;9.092;2022-09-09T03:35:16;3.90;;;0.90;;
23302;SDS011;11820;48.738;9.092;2022-09-09T03:37:41;1.90;;;0.70;;
23302;SDS011;11820;48.738;9.092;2022-09-09T03:40:07;1.47;;;0.70;;
23302;SDS011;11820;48.738;9.092;2022-09-09T03:42:34;1.80;;;0.77;;
23302;SDS011;11820;48.738;9.092;2022-09-09T03:45:01;1.63;;;0.67;;
23302;SDS011;11820;48.738;9.092;2022-09-09T03:47:28;1.83;;;0.90;;
23302;SDS011;11820;48.738;9.092;2022-09-09T03:49:53;3.70;;;0.67;;
23302;SDS011;11820;48.738;9.092;2022-09-09T03:52:18;2.53;;;0.77;;
23302;SDS011;11820;48.738;9.092;2022-09-09T03:54:44;2.60;;;0.80;;
23302;SDS011;11820;48.738;9.092;2022-09-09T03:57:10;1.80;;;0.80;;
23302;SDS011;11820;48.738;9.092;2022-09-09T03:59:36;3.23;;;0.80;;
23302;SDS011;11820;48.738;9.092;2022-09-09T04:02:02;1.53;;;0.93;;
23302;SDS011;11820;48.738;9.092;2022-09-09T04:04:28;1.97;;;0.97;;
23302;SDS011;11820;48.738;9.092;2022-09-09T04:06:54;4.97;;;1.07;;
23302;SDS011;11820;48.738;9.092;2022-09-09T04:09:19;2.50;;;0.70;;
23302;SDS011;11820;48.738;9.092;2022-09-09T04:11:45;1.57;;;0.50;;
23302;SDS011;11820;48.738;9.092;2022-09-09T04:14:11;3.77;;;1.10;;
23302;SDS011;11820;48.738;9.092;2022-09-09T04:16:37;1.60;;;0.73;;
23302;SDS011;11820;48.738;9.092;2022-09-09T04:19:03;2.57;;;1.00;;
23302;SDS011;11820;48.738;9.092;2022-09-09T04:21:29;1.87;;;0.80;;
23302;SDS011;11820;48.738;9.092;2022-09-09T04:23:56;2.07;;;0.70;;
23302;SDS011;11820;48.738;9.092;2022-09-09T04:26:21;1.93;;;0.80;;
23302;SDS011;11820;48.738;9.092;2022-09-09T04:28:47;5.43;;;1.00;;
23302;SDS011;11820;48.738;9.092;2022-09-09T04:31:15;2.67;;;0.90;;
23302;SDS011;11820;48.738;9.092;2022-09-09T04:33:43;2.50;;;0.90;;
23302;SDS011;11820;48.738;9.092;2022-09-09T04:36:08;1.37;;;0.80;;
23302;SDS011;11820;48.738;9.092;2022-09-09T04:38:34;2.93;;;1.00;;
23302;SDS011;11820;48.738;9.092;2022-09-09T04:40:59;1.50;;;1.07;;
23302;SDS011;11820;48.738;9.092;2022-09-09T04:43:24;4.13;;;1.10;;
23302;SDS011;11820;48.738;9.092;2022-09-09T04:45:51;1.43;;;0.80;;
23302;SDS011;11820;48.738;9.092;2022-09-09T04:48:17;3.77;;;1.20;;
23302;SDS011;11820;48.738;9.092;2022-09-09T04:50:43;3.97;;;1.27;;
23302;SDS011;11820;48.738;9.092;2022-09-09T04:53:08;3.60;;;1.30;;
23302;SDS011;11820;48.738;9.092;2022-09-09T04:55:34;3.20;;;1.40;;
23302;SDS011;11820;48.738;9.092;2022-09-09T04:58:06;5.50;;;1.30;;
23302;SDS011;11820;48.738;9.092;2022-09-09T05:00:33;2.03;;;0.93;;
23302;SDS011;11820;48.738;9.092;2022-09-09T05:03:03;1.90;;;1.10;;
23302;SDS011;11820;48.738;9.092;2022-09-09T05:05:29;1.70;;;0.73;;
23302;SDS011;11820;48.738;9.092;2022-09-09T05:08:00;2.53;;;1.10;;
23302;SDS011;11820;48.738;9.092;2022-09-09T05:10:28;1.83;;;0.90;;
23302;SDS011;11820;48.738;9.092;2022-09-09T05:12:53;2.13;;;1.00;;
23302;SDS011;11820;48.738;9.092;2022-09-09T05:15:19;2.40;;;0.87;;
23302;SDS011;11820;48.738;9.092;2022-09-09T05:17:45;3.10;;;1.00;;
23302;SDS011;11820;48.738;9.092;2022-09-09T05:20:11;2.50;;;1.20;;
23302;SDS011;11820;48.738;9.092;2022-09-09T05:22:37;3.80;;;1.80;;
23302;SDS011;11820;48.738;9.092;2022-09-09T05:25:02;5.57;;;1.00;;
23302;SDS011;11820;48.738;9.092;2022-09-09T05:27:28;3.30;;;1.17;;
23302;SDS011;11820;48.738;9.092;2022-09-09T05:29:56;4.50;;;1.40;;
23302;SDS011;11820;48.738;9.092;2022-09-09T05:32:22;3.57;;;1.10;;
23302;SDS011;11820;48.738;9.092;2022-09-09T05:34:47;2.33;;;1.00;;
23302;SDS011;11820;48.738;9.092;2022-09-09T05:37:13;4.10;;;1.10;;
23302;SDS011;11820;48.738;9.092;2022-09-09T05:39:38;1.60;;;1.03;;
23302;SDS011;11820;48.738;9.092;2022-09-09T05:42:04;4.13;;;1.30;;
23302;SDS011;11820;48.738;9.092;2022-09-09T05:44:29;6.00;;;1.40;;
23302;SDS011;11820;48.738;9.092;2022-09-09T05:46:55;2.30;;;0.90;;
23302;SDS011;11820;48.738;9.092;2022-09-09T05:49:20;1.97;;;0.70;;
23302;SDS011;11820;48.738;9.092;2022-09-09T05:51:46;1.43;;;1.00;;
23302;SDS011;11820;48.738;9.092;2022-09-09T05:54:12;3.17;;;1.03;;
23302;SDS011;11820;48.738;9.092;2022-09-09T05:56:40;2.80;;;1.23;;
23302;SDS011;11820;48.738;9.092;2022-09-09T05:59:06;2.67;;;1.10;;
23302;SDS011;11820;48.738;9.092;2022-09-09T06:01:32;1.90;;;1.10;;
23302;SDS011;11820;48.738;9.092;2022-09-09T06:03:59;3.13;;;1.37;;
23302;SDS011;11820;48.738;9.092;2022-09-09T06:06:25;1.53;;;1.10;;
23302;SDS011;11820;48.738;9.092;2022-09-09T06:08:55;1.90;;;1.40;;
23302;SDS011;11820;48.738;9.092;2022-09-09T06:11:27;4.50;;;1.70;;
23302;SDS011;11820;48.738;9.092;2022-09-09T06:13:56;3.23;;;1.47;;
23302;SDS011;11820;48.738;9.092;2022-09-09T06:16:22;4.37;;;1.40;;
23302;SDS011;11820;48.738;9.092;2022-09-09T06:18:49;4.50;;;1.70;;
23302;SDS011;11820;48.738;9.092;2022-09-09T06:21:19;1.53;;;1.20;;
23302;SDS011;11820;48.738;9.092;2022-09-09T06:23:47;4.03;;;1.50;;
23302;SDS011;11820;48.738;9.092;2022-09-09T06:26:14;2.60;;;1.20;;
23302;SDS011;11820;48.738;9.092;2022-09-09T06:28:43;2.23;;;1.10;;
23302;SDS011;11820;48.738;9.092;2022-09-09T06:31:11;2.83;;;1.13;;
23302;SDS011;11820;48.738;9.092;2022-09-09T06:33:39;2.73;;;0.87;;
23302;SDS011;11820;48.738;9.092;2022-09-09T06:36:16;5.30;;;1.40;;
23302;SDS011;11820;48.738;9.092;2022-09-09T06:38:43;4.27;;;1.17;;
23302;SDS011;11820;48.738;9.092;2022-09-09T06:41:09;3.53;;;1.27;;
23302;SDS011;11820;48.738;9.092;2022-09-09T06:43:37;2.37;;;1.10;;
23302;SDS011;11820;48.738;9.092;2022-09-09T06:46:04;3.23;;;1.10;;
23302;SDS011;11820;48.738;9.092;2022-09-09T06:48:33;5.10;;;1.10;;
23302;SDS011;11820;48.738;9.092;2022-09-09T06:51:08;3.70;;;1.30;;
23302;SDS011;11820;48.738;9.092;2022-09-09T06:53:38;3.83;;;0.87;;
23302;SDS011;11820;48.738;9.092;2022-09-09T06:58:40;2.90;;;1.10;;
23302;SDS011;11820;48.738;9.092;2022-09-09T07:01:13;3.37;;;1.20;;
23302;SDS011;11820;48.738;9.092;2022-09-09T07:03:40;2.80;;;1.37;;
23302;SDS011;11820;48.738;9.092;2022-09-09T07:06:05;2.90;;;1.03;;
23302;SDS011;11820;48.738;9.092;2022-09-09T07:08:32;3.07;;;1.30;;
23302;SDS011;11820;48.738;9.092;2022-09-09T07:11:02;5.73;;;1.37;;
23302;SDS011;11820;48.738;9.092;2022-09-09T07:13:30;3.50;;;1.40;;
23302;SDS011;11820;48.738;9.092;2022-09-09T07:16:02;7.17;;;1.40;;
23302;SDS011;11820;48.738;9.092;2022-09-09T07:18:32;3.73;;;1.37;;
23302;SDS011;11820;48.738;9.092;2022-09-09T07:20:58;6.93;;;1.30;;
23302;SDS011;11820;48.738;9.092;2022-09-09T07:23:23;4.40;;;1.30;;
23302;SDS011;11820;48.738;9.092;2022-09-09T07:25:49;4.13;;;1.30;;
23302;SDS011;11820;48.738;9.092;2022-09-09T07:28:15;2.07;;;1.00;;
23302;SDS011;11820;48.738;9.092;2022-09-09T07:30:41;1.87;;;1.00;;
23302;SDS011;11820;48.738;9.092;2022-09-09T07:33:07;5.23;;;1.07;;
23302;SDS011;11820;48.738;9.092;2022-09-09T07:35:34;3.30;;;1.23;;
23302;SDS011;11820;48.738;9.092;2022-09-09T07:38:02;2.93;;;1.33;;
23302;SDS011;11820;48.738;9.092;2022-09-09T07:40:31;2.97;;;1.10;;
23302;SDS011;11820;48.738;9.092;2022-09-09T07:42:57;3.40;;;1.20;;
23302;SDS011;11820;48.738;9.092;2022-09-09T07:45:22;2.40;;;1.07;;
23302;SDS011;11820;48.738;9.092;2022-09-09T07:47:48;2.90;;;1.10;;
23302;SDS011;11820;48.738;9.092;2022-09-09T07:50:13;3.63;;;1.20;;
23302;SDS011;11820;48.738;9.092;2022-09-09T07:52:40;2.83;;;1.17;;
23302;SDS011;11820;48.738;9.092;2022-09-09T07:55:05;2.13;;;1.00;;
23302;SDS011;11820;48.738;9.092;2022-09-09T07:57:31;2.83;;;1.30;;
23302;SDS011;11820;48.738;9.092;2022-09-09T07:59:56;4.23;;;1.20;;
23302;SDS011;11820;48.738;9.092;2022-09-09T08:02:25;1.83;;;0.80;;
23302;SDS011;11820;48.738;9.092;2022-09-09T08:04:52;2.53;;;1.23;;
23302;SDS011;11820;48.738;9.092;2022-09-09T08:07:18;2.43;;;0.87;;
23302;SDS011;11820;48.738;9.092;2022-09-09T08:09:44;3.77;;;1.10;;
23302;SDS011;11820;48.738;9.092;2022-09-09T08:12:09;4.87;;;1.20;;
23302;SDS011;11820;48.738;9.092;2022-09-09T08:14:35;2.07;;;1.00;;
23302;SDS011;11820;48.738;9.092;2022-09-09T08:17:01;2.20;;;0.93;;
23302;SDS011;11820;48.738;9.092;2022-09-09T08:19:26;3.27;;;1.20;;
23302;SDS011;11820;48.738;9.092;2022-09-09T08:21:54;2.80;;;0.70;;
23302;SDS011;11820;48.738;9.092;2022-09-09T08:24:19;4.40;;;1.20;;
23302;SDS011;11820;48.738;9.092;2022-09-09T08:26:46;5.53;;;1.43;;
23302;SDS011;11820;48.738;9.092;2022-09-09T08:29:14;6.90;;;1.23;;
23302;SDS011;11820;48.738;9.092;2022-09-09T08:34:16;3.27;;;1.33;;
23302;SDS011;11820;48.738;9.092;2022-09-09T08:36:45;4.30;;;1.10;;
23302;SDS011;11820;48.738;9.092;2022-09-09T08:39:12;3.17;;;0.90;;
23302;SDS011;11820;48.738;9.092;2022-09-09T08:44:10;5.13;;;1.70;;
23302;SDS011;11820;48.738;9.092;2022-09-09T08:52:31;2.77;;;1.40;;
23302;SDS011;11820;48.738;9.092;2022-09-09T08:57:51;2.93;;;1.10;;
23302;SDS011;11820;48.738;9.092;2022-09-09T09:00:19;4.40;;;1.10;;
23302;SDS011;11820;48.738;9.092;2022-09-09T09:05:37;3.07;;;1.00;;
23302;SDS011;11820;48.738;9.092;2022-09-09T09:10:51;3.20;;;0.90;;
23302;SDS011;11820;48.738;9.092;2022-09-09T09:15:52;5.00;;;1.33;;
23302;SDS011;11820;48.738;9.092;2022-09-09T09:18:22;2.20;;;0.90;;
23302;SDS011;11820;48.738;9.092;2022-09-09T09:20:59;2.07;;;1.10;;
23302;SDS011;11820;48.738;9.092;2022-09-09T09:23:35;7.03;;;1.13;;
23302;SDS011;11820;48.738;9.092;2022-09-09T09:26:10;1.10;;;0.60;;
23302;SDS011;11820;48.738;9.092;2022-09-09T09:28:42;2.73;;;0.80;;
23302;SDS011;11820;48.738;9.092;2022-09-09T09:31:11;3.80;;;0.90;;
23302;SDS011;11820;48.738;9.092;2022-09-09T09:36:05;2.00;;;0.80;;
23302;SDS011;11820;48.738;9.092;2022-09-09T09:38:33;3.43;;;0.93;;
23302;SDS011;11820;48.738;9.092;2022-09-09T09:41:00;1.60;;;0.80;;
23302;SDS011;11820;48.738;9.092;2022-09-09T09:43:32;1.40;;;0.53;;
23302;SDS011;11820;48.738;9.092;2022-09-09T09:45:59;1.93;;;1.03;;
23302;SDS011;11820;48.738;9.092;2022-09-09T09:48:25;1.37;;;1.00;;
23302;SDS011;11820;48.738;9.092;2022-09-09T09:50:53;4.07;;;0.70;;
23302;SDS011;11820;48.738;9.092;2022-09-09T09:53:24;3.43;;;1.17;;
23302;SDS011;11820;48.738;9.092;2022-09-09T09:56:01;1.70;;;0.60;;
23302;SDS011;11820;48.738;9.092;2022-09-09T10:01:31;6.27;;;1.30;;
23302;SDS011;11820;48.738;9.092;2022-09-09T10:04:19;3.43;;;0.90;;
23302;SDS011;11820;48.738;9.092;2022-09-09T10:06:48;4.87;;;1.10;;
23302;SDS011;11820;48.738;9.092;2022-09-09T10:11:51;5.57;;;1.10;;
23302;SDS011;11820;48.738;9.092;2022-09-09T10:17:15;2.50;;;0.90;;
23302;SDS011;11820;48.738;9.092;2022-09-09T10:19:42;1.10;;;0.80;;
23302;SDS011;11820;48.738;9.092;2022-09-09T10:22:32;1.73;;;1.23;;
23302;SDS011;11820;48.738;9.092;2022-09-09T10:28:10;2.60;;;1.07;;
23302;SDS011;11820;48.738;9.092;2022-09-09T10:33:10;4.47;;;1.23;;
23302;SDS011;11820;48.738;9.092;2022-09-09T10:35:52;3.40;;;1.03;;
23302;SDS011;11820;48.738;9.092;2022-09-09T10:38:42;3.40;;;1.30;;
23302;SDS011;11820;48.738;9.092;2022-09-09T10:41:15;2.40;;;0.90;;
23302;SDS011;11820;48.738;9.092;2022-09-09T10:46:43;1.73;;;0.97;;
23302;SDS011;11820;48.738;9.092;2022-09-09T10:55:16;2.77;;;1.30;;
23302;SDS011;11820;48.738;9.092;2022-09-09T10:57:51;2.90;;;0.87;;
23302;SDS011;11820;48.738;9.092;2022-09-09T11:00:36;6.40;;;1.03;;
23302;SDS011;11820;48.738;9.092;2022-09-09T11:03:20;5.13;;;0.97;;
23302;SDS011;11820;48.738;9.092;2022-09-09T11:05:51;3.73;;;1.07;;
23302;SDS011;11820;48.738;9.092;2022-09-09T11:08:23;3.57;;;1.43;;
23302;SDS011;11820;48.738;9.092;2022-09-09T11:19:01;2.50;;;0.90;;
23302;SDS011;11820;48.738;9.092;2022-09-09T11:21:29;3.67;;;1.10;;
23302;SDS011;11820;48.738;9.092;2022-09-09T11:24:05;2.80;;;1.03;;
23302;SDS011;11820;48.738;9.092;2022-09-09T11:26:38;1.57;;;0.60;;
23302;SDS011;11820;48.738;9.092;2022-09-09T11:32:16;1.90;;;0.80;;
23302;SDS011;11820;48.738;9.092;2022-09-09T11:35:19;2.90;;;0.93;;
23302;SDS011;11820;48.738;9.092;2022-09-09T11:40:40;0.80;;;0.50;;
23302;SDS011;11820;48.738;9.092;2022-09-09T11:45:39;1.43;;;0.77;;
23302;SDS011;11820;48.738;9.092;2022-09-09T11:48:10;1.47;;;0.53;;
23302;SDS011;11820;48.738;9.092;2022-09-09T11:50:56;1.43;;;0.50;;
23302;SDS011;11820;48.738;9.092;2022-09-09T11:53:27;0.70;;;0.40;;
23302;SDS011;11820;48.738;9.092;2022-09-09T11:58:36;1.63;;;0.73;;
23302;SDS011;11820;48.738;9.092;2022-09-09T12:01:14;3.23;;;0.60;;
23302;SDS011;11820;48.738;9.092;2022-09-09T12:06:24;1.30;;;0.47;;
23302;SDS011;11820;48.738;9.092;2022-09-09T12:09:06;1.50;;;0.50;;
23302;SDS011;11820;48.738;9.092;2022-09-09T12:11:40;3.40;;;1.10;;
23302;SDS011;11820;48.738;9.092;2022-09-09T12:14:17;2.27;;;0.60;;
23302;SDS011;11820;48.738;9.092;2022-09-09T12:16:45;1.27;;;0.70;;
23302;SDS011;11820;48.738;9.092;2022-09-09T12:19:15;2.50;;;0.93;;
23302;SDS011;11820;48.738;9.092;2022-09-09T12:24:40;0.80;;;0.50;;
23302;SDS011;11820;48.738;9.092;2022-09-09T12:27:16;0.87;;;0.70;;
23302;SDS011;11820;48.738;9.092;2022-09-09T12:30:03;0.90;;;0.50;;
23302;SDS011;11820;48.738;9.092;2022-09-09T12:32:34;3.67;;;1.00;;
23302;SDS011;11820;48.738;9.092;2022-09-09T12:35:03;1.93;;;0.80;;
23302;SDS011;11820;48.738;9.092;2022-09-09T12:37:38;1.73;;;0.70;;
23302;SDS011;11820;48.738;9.092;2022-09-09T12:42:53;1.77;;;0.73;;
23302;SDS011;11820;48.738;9.092;2022-09-09T12:45:26;3.80;;;1.13;;
23302;SDS011;11820;48.738;9.092;2022-09-09T12:48:08;1.10;;;0.67;;
23302;SDS011;11820;48.738;9.092;2022-09-09T12:53:32;1.77;;;0.80;;
23302;SDS011;11820;48.738;9.092;2022-09-09T12:56:01;1.33;;;0.60;;
23302;SDS011;11820;48.738;9.092;2022-09-09T12:58:29;2.03;;;0.60;;
23302;SDS011;11820;48.738;9.092;2022-09-09T13:00:59;3.00;;;0.60;;
23302;SDS011;11820;48.738;9.092;2022-09-09T13:03:30;1.23;;;0.77;;
23302;SDS011;11820;48.738;9.092;2022-09-09T13:06:10;8.23;;;1.10;;
23302;SDS011;11820;48.738;9.092;2022-09-09T13:08:47;2.73;;;0.70;;
23302;SDS011;11820;48.738;9.092;2022-09-09T13:11:15;3.03;;;0.80;;
23302;SDS011;11820;48.738;9.092;2022-09-09T13:13:51;1.53;;;0.60;;
23302;SDS011;11820;48.738;9.092;2022-09-09T13:16:20;1.40;;;0.50;;
23302;SDS011;11820;48.738;9.092;2022-09-09T13:18:48;0.77;;;0.53;;
23302;SDS011;11820;48.738;9.092;2022-09-09T13:21:14;1.70;;;0.80;;
23302;SDS011;11820;48.738;9.092;2022-09-09T13:23:40;1.47;;;0.67;;
23302;SDS011;11820;48.738;9.092;2022-09-09T13:26:23;1.70;;;0.60;;
23302;SDS011;11820;48.738;9.092;2022-09-09T13:28:53;1.80;;;0.70;;
23302;SDS011;11820;48.738;9.092;2022-09-09T13:31:22;3.58;;;0.75;;
23302;SDS011;11820;48.738;9.092;2022-09-09T13:33:49;1.60;;;0.60;;
23302;SDS011;11820;48.738;9.092;2022-09-09T13:36:15;1.60;;;0.80;;
23302;SDS011;11820;48.738;9.092;2022-09-09T13:38:52;1.23;;;0.63;;
23302;SDS011;11820;48.738;9.092;2022-09-09T13:41:21;1.23;;;1.00;;
23302;SDS011;11820;48.738;9.092;2022-09-09T13:43:49;0.93;;;0.60;;
23302;SDS011;11820;48.738;9.092;2022-09-09T13:51:36;1.93;;;0.63;;
23302;SDS011;11820;48.738;9.092;2022-09-09T13:54:02;1.73;;;0.60;;
23302;SDS011;11820;48.738;9.092;2022-09-09T13:56:30;2.13;;;0.70;;
23302;SDS011;11820;48.738;9.092;2022-09-09T13:58:56;4.13;;;0.70;;
23302;SDS011;11820;48.738;9.092;2022-09-09T14:01:23;1.10;;;0.40;;
23302;SDS011;11820;48.738;9.092;2022-09-09T14:03:48;1.23;;;0.63;;
23302;SDS011;11820;48.738;9.092;2022-09-09T14:06:14;2.80;;;0.80;;
23302;SDS011;11820;48.738;9.092;2022-09-09T14:08:39;1.60;;;0.80;;
23302;SDS011;11820;48.738;9.092;2022-09-09T14:11:05;1.97;;;0.90;;
23302;SDS011;11820;48.738;9.092;2022-09-09T14:13:33;1.20;;;0.60;;
23302;SDS011;11820;48.738;9.092;2022-09-09T14:15:59;1.93;;;0.70;;
23302;SDS011;11820;48.738;9.092;2022-09-09T14:18:24;3.63;;;0.70;;
23302;SDS011;11820;48.738;9.092;2022-09-09T14:20:50;2.57;;;0.60;;
23302;SDS011;11820;48.738;9.092;2022-09-09T14:23:16;1.13;;;0.53;;
23302;SDS011;11820;48.738;9.092;2022-09-09T14:25:42;2.43;;;0.80;;
23302;SDS011;11820;48.738;9.092;2022-09-09T14:28:12;1.40;;;0.50;;
23302;SDS011;11820;48.738;9.092;2022-09-09T14:30:39;1.63;;;0.60;;
23302;SDS011;11820;48.738;9.092;2022-09-09T14:33:05;1.30;;;0.50;;
23302;SDS011;11820;48.738;9.092;2022-09-09T14:35:31;1.47;;;0.70;;
23302;SDS011;11820;48.738;9.092;2022-09-09T14:37:58;2.30;;;0.47;;
23302;SDS011;11820;48.738;9.092;2022-09-09T14:40:23;0.90;;;0.53;;
23302;SDS011;11820;48.738;9.092;2022-09-09T14:42:49;1.90;;;0.33;;
23302;SDS011;11820;48.738;9.092;2022-09-09T14:45:14;4.47;;;0.70;;
23302;SDS011;11820;48.738;9.092;2022-09-09T14:47:39;2.93;;;0.60;;
23302;SDS011;11820;48.738;9.092;2022-09-09T14:50:05;0.53;;;0.40;;
23302;SDS011;11820;48.738;9.092;2022-09-09T14:52:31;1.53;;;0.60;;
23302;SDS011;11820;48.738;9.092;2022-09-09T14:54:56;1.43;;;0.40;;
23302;SDS011;11820;48.738;9.092;2022-09-09T14:57:22;0.67;;;0.40;;
23302;SDS011;11820;48.738;9.092;2022-09-09T14:59:47;1.07;;;0.53;;
23302;SDS011;11820;48.738;9.092;2022-09-09T15:02:14;1.00;;;0.70;;
23302;SDS011;11820;48.738;9.092;2022-09-09T15:04:39;1.53;;;0.60;;
23302;SDS011;11820;48.738;9.092;2022-09-09T15:07:04;0.80;;;0.57;;
23302;SDS011;11820;48.738;9.092;2022-09-09T15:09:30;2.87;;;0.57;;
23302;SDS011;11820;48.738;9.092;2022-09-09T15:11:55;1.13;;;0.50;;
23302;SDS011;11820;48.738;9.092;2022-09-09T15:14:20;1.67;;;0.70;;
23302;SDS011;11820;48.738;9.092;2022-09-09T15:16:46;0.87;;;0.50;;
23302;SDS011;11820;48.738;9.092;2022-09-09T15:19:11;3.17;;;0.57;;
23302;SDS011;11820;48.738;9.092;2022-09-09T15:21:36;1.63;;;0.47;;
23302;SDS011;11820;48.738;9.092;2022-09-09T15:24:03;1.80;;;0.70;;
23302;SDS011;11820;48.738;9.092;2022-09-09T15:26:29;2.50;;;0.60;;
23302;SDS011;11820;48.738;9.092;2022-09-09T15:28:55;3.10;;;0.83;;
23302;SDS011;11820;48.738;9.092;2022-09-09T15:31:24;2.67;;;0.60;;
23302;SDS011;11820;48.738;9.092;2022-09-09T15:33:54;1.30;;;0.70;;
23302;SDS011;11820;48.738;9.092;2022-09-09T15:36:26;2.93;;;0.50;;
23302;SDS011;11820;48.738;9.092;2022-09-09T15:38:53;2.83;;;0.70;;
23302;SDS011;11820;48.738;9.092;2022-09-09T15:41:19;2.10;;;0.70;;
23302;SDS011;11820;48.738;9.092;2022-09-09T15:43:47;1.20;;;0.73;;
23302;SDS011;11820;48.738;9.092;2022-09-09T15:46:22;1.40;;;0.60;;
23302;SDS011;11820;48.738;9.092;2022-09-09T15:48:54;2.23;;;0.40;;
23302;SDS011;11820;48.738;9.092;2022-09-09T15:51:27;1.03;;;0.60;;
23302;SDS011;11820;48.738;9.092;2022-09-09T15:53:56;2.07;;;0.80;;
23302;SDS011;11820;48.738;9.092;2022-09-09T15:56:23;1.93;;;0.60;;
23302;SDS011;11820;48.738;9.092;2022-09-09T15:58:49;3.27;;;0.90;;
23302;SDS011;11820;48.738;9.092;2022-09-09T16:01:14;3.33;;;1.10;;
23302;SDS011;11820;48.738;9.092;2022-09-09T16:03:41;1.60;;;0.67;;
23302;SDS011;11820;48.738;9.092;2022-09-09T16:06:08;1.53;;;0.60;;
23302;SDS011;11820;48.738;9.092;2022-09-09T16:08:38;2.50;;;0.60;;
23302;SDS011;11820;48.738;9.092;2022-09-09T16:11:08;1.37;;;0.50;;
23302;SDS011;11820;48.738;9.092;2022-09-09T16:13:36;1.20;;;0.60;;
23302;SDS011;11820;48.738;9.092;2022-09-09T16:16:02;1.47;;;0.70;;
23302;SDS011;11820;48.738;9.092;2022-09-09T16:18:45;2.40;;;0.80;;
23302;SDS011;11820;48.738;9.092;2022-09-09T16:21:13;2.50;;;0.67;;
23302;SDS011;11820;48.738;9.092;2022-09-09T16:23:41;2.10;;;1.00;;
23302;SDS011;11820;48.738;9.092;2022-09-09T16:26:08;2.03;;;0.40;;
23302;SDS011;11820;48.738;9.092;2022-09-09T16:28:36;0.97;;;0.60;;
23302;SDS011;11820;48.738;9.092;2022-09-09T16:31:05;1.77;;;0.50;;
23302;SDS011;11820;48.738;9.092;2022-09-09T16:33:31;2.27;;;0.80;;
23302;SDS011;11820;48.738;9.092;2022-09-09T16:35:57;1.77;;;0.70;;
23302;SDS011;11820;48.738;9.092;2022-09-09T16:38:22;1.70;;;0.57;;
23302;SDS011;11820;48.738;9.092;2022-09-09T16:40:50;2.47;;;0.60;;
23302;SDS011;11820;48.738;9.092;2022-09-09T16:43:16;1.33;;;0.60;;
23302;SDS011;11820;48.738;9.092;2022-09-09T16:45:42;1.23;;;0.50;;
23302;SDS011;11820;48.738;9.092;2022-09-09T16:48:08;3.70;;;0.70;;
23302;SDS011;11820;48.738;9.092;2022-09-09T16:50:33;1.33;;;0.60;;
23302;SDS011;11820;48.738;9.092;2022-09-09T16:52:59;2.27;;;0.70;;
23302;SDS011;11820;48.738;9.092;2022-09-09T16:55:24;0.50;;;0.50;;
23302;SDS011;11820;48.738;9.092;2022-09-09T17:00:43;1.20;;;0.60;;
23302;SDS011;11820;48.738;9.092;2022-09-09T17:03:12;1.40;;;0.43;;
23302;SDS011;11820;48.738;9.092;2022-09-09T17:05:41;1.47;;;0.87;;
23302;SDS011;11820;48.738;9.092;2022-09-09T17:08:06;0.77;;;0.50;;
23302;SDS011;11820;48.738;9.092;2022-09-09T17:10:32;1.30;;;0.43;;
23302;SDS011;11820;48.738;9.092;2022-09-09T17:12:57;0.70;;;0.60;;
23302;SDS011;11820;48.738;9.092;2022-09-09T17:15:23;2.10;;;0.53;;